Time;durP1;ratioP1;P1;durP2;ratioP2;P2;SDS_P1;SDS_P2;PMS_P1;PMS_P2;Temp;Humidity;BMP_temperature;BMP_pressure;BME280_temperature;BME280_humidity;BME280_pressure;Samples;Min_cycle;Max_cycle;Signal;HPM_P1;HPM_P2
2022/10/17 00:00:50;;;;;;;12.95;5.70;;;15.80;82.80;;;;;;5019456;28;20439;-67
2022/10/17 00:03:16;;;;;;;8.98;6.47;;;15.80;82.80;;;;;;5024736;28;20040;-68
2022/10/17 00:05:46;;;;;;;9.25;6.07;;;15.90;82.90;;;;;;5018583;28;20057;-68
2022/10/17 00:08:14;;;;;;;11.13;6.00;;;15.80;82.90;;;;;;5037579;28;20350;-68
2022/10/17 00:10:40;;;;;;;9.50;6.50;;;15.80;82.90;;;;;;5019715;28;20034;-68
2022/10/17 00:13:07;;;;;;;9.35;5.60;;;15.80;82.90;;;;;;5031087;28;20037;-67
2022/10/17 00:15:32;;;;;;;13.77;6.22;;;15.80;82.90;;;;;;5022782;28;20058;-67
2022/10/17 00:17:58;;;;;;;10.55;6.30;;;15.80;83.00;;;;;;5032649;28;20112;-67
2022/10/17 00:20:24;;;;;;;9.30;5.97;;;15.70;83.00;;;;;;5017926;28;20443;-68
2022/10/17 00:22:50;;;;;;;9.32;6.18;;;15.80;83.10;;;;;;5024752;28;20014;-68
2022/10/17 00:25:16;;;;;;;9.48;5.80;;;15.80;83.10;;;;;;5024956;28;20444;-68
2022/10/17 00:27:42;;;;;;;10.35;6.90;;;15.70;83.10;;;;;;5036384;28;20120;-67
2022/10/17 00:30:12;;;;;;;10.15;6.22;;;15.70;83.10;;;;;;5027919;28;20436;-68
2022/10/17 00:32:37;;;;;;;10.55;6.55;;;15.70;83.20;;;;;;5033476;28;20042;-68
2022/10/17 00:35:04;;;;;;;8.50;6.05;;;15.70;83.20;;;;;;5025651;28;20091;-68
2022/10/17 00:37:31;;;;;;;12.38;6.00;;;15.70;83.20;;;;;;5022836;28;20025;-68
2022/10/17 00:39:57;;;;;;;9.77;7.07;;;15.70;83.30;;;;;;5025433;28;20084;-68
2022/10/17 00:42:23;;;;;;;13.73;6.82;;;15.70;83.30;;;;;;5018936;28;20040;-68
2022/10/17 00:44:49;;;;;;;10.15;6.63;;;15.70;83.30;;;;;;5025183;28;20108;-67
2022/10/17 00:47:21;;;;;;;9.88;6.40;;;15.70;83.30;;;;;;5023371;28;20045;-68
2022/10/17 00:49:47;;;;;;;11.63;6.78;;;15.70;83.50;;;;;;5026672;28;20473;-68
2022/10/17 00:52:22;;;;;;;11.77;6.35;;;15.70;83.40;;;;;;5031729;28;20051;-67
2022/10/17 00:54:53;;;;;;;8.93;5.88;;;15.70;83.50;;;;;;5029966;28;20030;-67
2022/10/17 00:57:19;;;;;;;9.88;7.13;;;15.70;83.60;;;;;;5017226;28;20061;-67
2022/10/17 00:59:50;;;;;;;12.32;7.65;;;15.70;83.50;;;;;;5021006;28;20060;-67
2022/10/17 01:02:18;;;;;;;11.52;6.93;;;15.70;83.60;;;;;;5023173;28;20045;-67
2022/10/17 01:04:49;;;;;;;10.38;7.03;;;15.70;83.60;;;;;;5027104;28;20033;-67
2022/10/17 01:07:15;;;;;;;10.80;6.55;;;15.70;83.60;;;;;;5019747;28;20026;-68
2022/10/17 01:09:42;;;;;;;9.27;6.18;;;15.70;83.60;;;;;;5046491;28;20442;-67
2022/10/17 01:12:44;;;;;;;9.45;6.93;;;15.60;83.50;;;;;;5028308;28;20129;-68
2022/10/17 01:15:31;;;;;;;11.82;7.00;;;15.70;83.60;;;;;;5025418;28;20293;-68
2022/10/17 01:18:25;;;;;;;9.05;6.38;;;15.70;83.60;;;;;;5029684;28;20116;-67
2022/10/17 01:21:19;;;;;;;9.48;6.10;;;15.60;83.60;;;;;;5023521;28;20033;-68
2022/10/17 01:24:31;;;;;;;9.73;6.45;;;15.60;83.60;;;;;;5032489;28;20026;-68
2022/10/17 01:27:27;;;;;;;9.77;6.72;;;15.60;83.60;;;;;;5022257;28;20036;-67
2022/10/17 01:29:54;;;;;;;9.45;5.95;;;15.60;83.70;;;;;;5035782;28;20442;-67
2022/10/17 01:32:38;;;;;;;9.85;6.85;;;15.60;83.70;;;;;;5024667;28;20112;-67
2022/10/17 01:35:21;;;;;;;11.35;6.38;;;15.60;83.80;;;;;;5017890;28;20060;-68
2022/10/17 01:37:57;;;;;;;9.57;5.82;;;15.60;83.80;;;;;;5026393;28;20031;-67
2022/10/17 01:40:36;;;;;;;9.55;6.30;;;15.60;83.80;;;;;;5030497;28;20068;-68
2022/10/17 01:43:23;;;;;;;9.82;6.30;;;15.60;83.90;;;;;;5000937;28;20108;-68
2022/10/17 01:46:04;;;;;;;10.80;6.38;;;15.60;83.90;;;;;;5018020;28;20370;-67
2022/10/17 01:48:34;;;;;;;9.90;5.70;;;15.60;83.90;;;;;;5023440;28;20446;-68
2022/10/17 01:51:17;;;;;;;10.43;6.32;;;15.60;83.90;;;;;;5034229;28;20029;-68
2022/10/17 01:53:53;;;;;;;10.27;6.35;;;15.60;83.90;;;;;;5018178;28;20036;-68
2022/10/17 01:56:21;;;;;;;9.13;6.70;;;15.60;84.00;;;;;;5016757;28;20018;-68
2022/10/17 01:58:55;;;;;;;9.23;6.13;;;15.60;84.00;;;;;;5029492;28;20515;-68
2022/10/17 02:01:24;;;;;;;13.82;6.65;;;15.60;84.00;;;;;;5009925;28;20048;-67
2022/10/17 02:03:52;;;;;;;9.38;6.40;;;15.60;84.10;;;;;;5018483;28;20030;-68
2022/10/17 02:06:17;;;;;;;11.65;6.72;;;15.60;84.10;;;;;;5015684;28;20021;-67
2022/10/17 02:08:45;;;;;;;10.40;6.90;;;15.60;84.10;;;;;;5029307;28;20512;-68
2022/10/17 02:11:19;;;;;;;10.07;7.32;;;15.60;84.20;;;;;;5031609;28;20030;-68
2022/10/17 02:14:08;;;;;;;10.45;6.45;;;15.60;84.20;;;;;;5027000;28;20091;-68
2022/10/17 02:17:03;;;;;;;9.05;6.18;;;15.60;84.20;;;;;;5014774;28;20057;-68
2022/10/17 02:19:57;;;;;;;10.50;6.28;;;15.60;84.20;;;;;;5033883;28;20053;-68
2022/10/17 02:22:38;;;;;;;10.80;6.90;;;15.60;84.20;;;;;;5022423;28;20021;-68
2022/10/17 02:25:32;;;;;;;12.98;6.70;;;15.60;84.20;;;;;;5035156;28;20034;-68
2022/10/17 02:28:22;;;;;;;10.65;6.60;;;15.60;84.30;;;;;;5020299;28;20404;-68
2022/10/17 02:31:05;;;;;;;10.30;6.68;;;15.60;84.90;;;;;;5020485;28;20021;-68
2022/10/17 02:34:01;;;;;;;9.65;6.57;;;15.50;84.30;;;;;;5025543;28;20041;-68
2022/10/17 02:36:40;;;;;;;10.95;7.32;;;15.50;84.30;;;;;;5026757;28;20052;-68
2022/10/17 02:39:07;;;;;;;10.27;7.03;;;15.50;84.40;;;;;;5019655;28;20038;-68
2022/10/17 02:41:34;;;;;;;10.88;6.95;;;15.50;84.30;;;;;;5050301;28;20027;-68
2022/10/17 02:44:03;;;;;;;10.82;7.32;;;15.60;84.40;;;;;;5025875;28;20099;-68
2022/10/17 02:46:30;;;;;;;10.68;7.00;;;15.60;84.50;;;;;;5027970;28;20029;-68
2022/10/17 02:49:16;;;;;;;11.02;7.45;;;15.60;84.50;;;;;;5022824;28;20059;-68
2022/10/17 02:52:04;;;;;;;10.68;7.35;;;15.50;84.50;;;;;;5016886;28;20022;-68
2022/10/17 02:54:45;;;;;;;10.57;7.00;;;15.60;84.50;;;;;;5016855;28;20439;-68
2022/10/17 02:57:35;;;;;;;12.88;7.47;;;15.60;84.60;;;;;;5016361;28;20113;-68
2022/10/17 03:00:05;;;;;;;9.90;6.22;;;15.60;84.50;;;;;;5030590;28;20049;-68
2022/10/17 03:02:43;;;;;;;11.15;7.00;;;15.50;84.60;;;;;;5028464;28;20034;-68
2022/10/17 03:05:11;;;;;;;11.73;7.55;;;15.50;84.60;;;;;;5014796;28;20028;-67
2022/10/17 03:07:37;;;;;;;10.05;6.85;;;15.50;84.70;;;;;;5020624;28;20507;-68
2022/10/17 03:10:03;;;;;;;12.85;7.30;;;15.50;84.70;;;;;;5010465;28;20025;-67
2022/10/17 03:12:29;;;;;;;10.00;6.70;;;15.50;84.70;;;;;;5028393;28;20104;-68
2022/10/17 03:14:55;;;;;;;9.80;6.63;;;15.50;84.70;;;;;;5033843;28;20136;-68
2022/10/17 03:17:21;;;;;;;10.45;7.20;;;15.50;84.80;;;;;;5020616;28;20030;-68
2022/10/17 03:19:46;;;;;;;12.65;7.47;;;15.50;84.70;;;;;;5026359;28;20018;-68
2022/10/17 03:22:13;;;;;;;11.35;6.75;;;15.50;84.80;;;;;;5028717;28;20030;-68
2022/10/17 03:24:41;;;;;;;9.95;6.65;;;15.50;84.80;;;;;;5029776;28;20021;-68
2022/10/17 03:27:07;;;;;;;10.07;6.45;;;15.50;84.80;;;;;;5030358;28;20390;-68
2022/10/17 03:29:33;;;;;;;11.10;6.97;;;15.50;84.80;;;;;;5029665;28;20124;-68
2022/10/17 03:31:59;;;;;;;10.50;6.95;;;15.50;84.80;;;;;;5030403;28;20018;-68
2022/10/17 03:34:24;;;;;;;10.02;6.80;;;15.50;84.90;;;;;;5016253;28;20060;-67
2022/10/17 03:36:50;;;;;;;10.25;6.63;;;15.50;84.90;;;;;;5010987;28;20033;-67
2022/10/17 03:39:17;;;;;;;11.63;7.05;;;15.50;84.90;;;;;;5024231;28;20041;-68
2022/10/17 03:41:42;;;;;;;10.35;7.07;;;15.50;84.90;;;;;;5032711;28;20025;-68
2022/10/17 03:44:08;;;;;;;10.77;6.65;;;15.50;84.90;;;;;;5023742;28;20114;-68
2022/10/17 03:46:34;;;;;;;10.23;7.20;;;15.50;84.90;;;;;;5026435;28;20107;-68
2022/10/17 03:48:59;;;;;;;9.77;6.95;;;15.50;84.90;;;;;;5027201;28;20163;-68
2022/10/17 03:51:25;;;;;;;10.30;6.97;;;15.50;84.90;;;;;;5033702;28;20534;-68
2022/10/17 03:53:58;;;;;;;11.25;7.18;;;15.50;84.90;;;;;;5012765;28;20022;-68
2022/10/17 03:56:24;;;;;;;10.15;6.85;;;15.50;84.90;;;;;;5013054;28;20530;-68
2022/10/17 03:58:58;;;;;;;12.43;7.40;;;15.50;84.90;;;;;;4997446;28;20041;-68
2022/10/17 04:01:24;;;;;;;10.30;7.15;;;15.50;85.00;;;;;;5029564;28;20034;-68
2022/10/17 04:03:51;;;;;;;10.27;6.78;;;15.50;85.00;;;;;;5015306;28;20022;-67
2022/10/17 04:06:18;;;;;;;10.18;6.78;;;15.50;85.00;;;;;;5006718;28;20017;-68
2022/10/17 04:08:43;;;;;;;11.05;6.85;;;15.50;85.00;;;;;;5016304;28;20033;-68
2022/10/17 04:11:16;;;;;;;9.68;6.40;;;15.50;85.00;;;;;;5017045;28;20087;-68
2022/10/17 04:13:44;;;;;;;11.95;7.25;;;15.40;84.90;;;;;;5022342;28;20030;-68
2022/10/17 04:16:13;;;;;;;11.77;6.80;;;15.50;85.00;;;;;;5022042;28;20074;-68
2022/10/17 04:18:50;;;;;;;12.38;7.25;;;15.50;85.10;;;;;;5016047;28;20446;-68
2022/10/17 04:21:17;;;;;;;10.52;6.82;;;15.40;85.00;;;;;;5026915;28;20442;-68
2022/10/17 04:23:43;;;;;;;11.98;6.68;;;15.40;85.00;;;;;;5003431;28;20470;-68
2022/10/17 04:26:21;;;;;;;9.98;6.90;;;15.50;85.10;;;;;;5018141;28;20419;-67
2022/10/17 04:28:47;;;;;;;10.75;6.72;;;15.40;85.10;;;;;;5001193;28;20512;-68
2022/10/17 04:31:13;;;;;;;9.90;6.55;;;15.40;85.10;;;;;;5027595;28;20023;-68
2022/10/17 04:33:58;;;;;;;10.35;6.22;;;15.40;85.10;;;;;;5011955;28;20032;-68
2022/10/17 04:36:24;;;;;;;8.95;6.13;;;15.40;85.10;;;;;;5028286;28;20402;-67
2022/10/17 04:38:50;;;;;;;10.32;6.65;;;15.40;85.10;;;;;;5012588;28;20030;-68
2022/10/17 04:41:17;;;;;;;10.13;7.05;;;15.40;85.10;;;;;;5012198;28;20048;-68
2022/10/17 04:43:43;;;;;;;9.70;6.78;;;15.40;85.20;;;;;;5015570;28;20018;-68
2022/10/17 04:46:12;;;;;;;10.40;6.97;;;15.50;85.20;;;;;;5016028;28;20018;-70
2022/10/17 04:48:39;;;;;;;10.40;6.10;;;15.40;85.20;;;;;;5019814;28;20022;-68
2022/10/17 04:51:07;;;;;;;10.20;6.60;;;15.40;85.20;;;;;;5015136;28;20026;-68
2022/10/17 04:53:43;;;;;;;11.32;6.90;;;15.40;85.20;;;;;;5015219;28;20129;-68
2022/10/17 04:56:15;;;;;;;9.23;6.18;;;15.40;85.20;;;;;;5015202;28;20022;-68
2022/10/17 04:58:42;;;;;;;10.02;6.45;;;15.40;85.20;;;;;;5017056;28;20336;-68
2022/10/17 05:01:10;;;;;;;9.40;6.30;;;15.40;85.20;;;;;;5016479;28;20022;-68
2022/10/17 05:03:38;;;;;;;10.40;6.70;;;15.40;85.20;;;;;;5014386;28;20168;-68
2022/10/17 05:06:09;;;;;;;10.98;6.75;;;15.40;85.20;;;;;;5014686;28;20164;-68
2022/10/17 05:08:37;;;;;;;10.52;6.75;;;15.40;85.90;;;;;;5021753;28;20026;-68
2022/10/17 05:11:04;;;;;;;9.27;6.35;;;15.40;85.30;;;;;;5022067;28;20045;-68
2022/10/17 05:13:31;;;;;;;10.57;6.72;;;15.40;85.30;;;;;;5022421;28;20064;-68
2022/10/17 05:16:00;;;;;;;11.68;6.90;;;15.40;85.30;;;;;;5032251;28;20092;-68
2022/10/17 05:18:29;;;;;;;9.88;6.55;;;15.40;85.30;;;;;;5031028;28;20045;-68
2022/10/17 05:20:55;;;;;;;10.68;6.85;;;15.40;85.30;;;;;;5031754;28;20635;-68
2022/10/17 05:23:21;;;;;;;10.43;7.15;;;15.40;85.30;;;;;;5024314;28;20029;-68
2022/10/17 05:25:53;;;;;;;9.65;6.25;;;15.40;85.30;;;;;;5029988;28;20026;-67
2022/10/17 05:28:19;;;;;;;9.57;6.68;;;15.40;85.40;;;;;;5018907;28;20589;-68
2022/10/17 05:30:45;;;;;;;11.25;6.22;;;15.40;85.40;;;;;;5012441;28;20048;-68
2022/10/17 05:33:11;;;;;;;9.85;6.53;;;15.30;85.30;;;;;;5022115;28;20033;-68
2022/10/17 05:35:36;;;;;;;10.88;7.65;;;15.30;85.30;;;;;;5033430;28;20030;-68
2022/10/17 05:38:02;;;;;;;11.38;7.45;;;15.30;85.30;;;;;;5018311;28;20030;-68
2022/10/17 05:40:30;;;;;;;11.55;7.18;;;15.30;85.30;;;;;;5026675;28;20028;-68
2022/10/17 05:42:56;;;;;;;10.77;6.90;;;15.30;85.30;;;;;;5021862;28;20026;-68
2022/10/17 05:45:22;;;;;;;11.63;7.13;;;15.30;85.40;;;;;;5005938;28;20018;-69
2022/10/17 05:47:48;;;;;;;11.00;6.47;;;15.30;85.40;;;;;;5020305;28;20076;-68
2022/10/17 05:50:15;;;;;;;9.65;6.47;;;15.30;85.40;;;;;;5019601;28;20060;-68
2022/10/17 05:52:58;;;;;;;10.23;6.57;;;15.30;85.40;;;;;;5010940;28;20040;-68
2022/10/17 05:55:24;;;;;;;9.98;6.63;;;15.30;85.40;;;;;;5019297;28;20022;-68
2022/10/17 05:57:52;;;;;;;10.82;7.15;;;15.30;85.40;;;;;;5028214;28;20048;-68
2022/10/17 06:00:20;;;;;;;9.95;6.68;;;15.40;85.50;;;;;;5045859;28;20021;-68
2022/10/17 06:02:53;;;;;;;9.40;6.45;;;15.40;86.10;;;;;;5015837;28;20022;-68
2022/10/17 06:05:19;;;;;;;10.35;7.18;;;15.40;85.50;;;;;;5019743;28;20020;-67
2022/10/17 06:07:45;;;;;;;10.90;7.28;;;15.40;85.50;;;;;;5014732;28;20026;-67
2022/10/17 06:10:15;;;;;;;12.32;6.97;;;15.40;85.50;;;;;;5024674;28;20029;-67
2022/10/17 06:12:41;;;;;;;11.25;6.72;;;15.40;85.50;;;;;;5018897;28;20399;-67
2022/10/17 06:15:08;;;;;;;10.13;6.90;;;15.40;85.50;;;;;;5026915;28;20058;-67
2022/10/17 06:17:34;;;;;;;10.27;6.65;;;15.40;85.50;;;;;;5018394;28;20037;-67
2022/10/17 06:20:00;;;;;;;13.20;7.10;;;15.40;85.60;;;;;;5017160;28;20017;-67
2022/10/17 06:22:26;;;;;;;10.85;6.78;;;15.40;85.60;;;;;;5020984;28;20109;-68
2022/10/17 06:24:52;;;;;;;11.88;7.45;;;15.40;85.50;;;;;;5015398;28;20025;-66
2022/10/17 06:27:18;;;;;;;11.60;7.05;;;15.40;85.50;;;;;;5043229;28;20021;-66
2022/10/17 06:29:46;;;;;;;10.45;6.97;;;15.40;85.50;;;;;;5018639;28;20018;-66
2022/10/17 06:32:12;;;;;;;13.10;7.05;;;15.40;85.60;;;;;;5017375;28;20026;-66
2022/10/17 06:34:38;;;;;;;11.10;6.80;;;15.40;85.60;;;;;;5025343;28;20346;-67
2022/10/17 06:37:03;;;;;;;10.32;6.55;;;15.40;85.60;;;;;;5021616;28;20033;-67
2022/10/17 06:39:32;;;;;;;10.63;7.28;;;15.50;85.70;;;;;;5013081;28;20018;-67
2022/10/17 06:42:05;;;;;;;16.45;7.50;;;15.50;85.60;;;;;;5011894;28;20100;-67
2022/10/17 06:44:52;;;;;;;10.95;7.32;;;15.50;85.60;;;;;;5018428;28;20033;-67
2022/10/17 06:47:21;;;;;;;10.63;6.70;;;15.50;85.60;;;;;;5020065;28;20053;-66
2022/10/17 06:49:48;;;;;;;10.77;7.13;;;15.50;85.60;;;;;;5031481;28;20588;-67
2022/10/17 06:52:39;;;;;;;10.48;6.60;;;15.50;85.60;;;;;;5018890;28;20056;-67
2022/10/17 06:55:23;;;;;;;11.20;7.32;;;15.60;85.70;;;;;;5013687;28;20477;-68
2022/10/17 06:58:10;;;;;;;10.45;6.43;;;15.60;85.80;;;;;;5018021;28;20063;-68
2022/10/17 07:00:46;;;;;;;11.25;6.05;;;15.60;85.90;;;;;;5026130;28;20027;-68
2022/10/17 07:03:12;;;;;;;11.52;7.30;;;15.60;85.90;;;;;;5015055;28;20337;-66
2022/10/17 07:05:38;;;;;;;10.35;7.10;;;15.70;86.60;;;;;;5006389;28;20422;-66
2022/10/17 07:08:04;;;;;;;11.50;7.78;;;15.70;86.00;;;;;;5001882;28;20037;-66
2022/10/17 07:10:30;;;;;;;11.27;6.82;;;15.70;86.00;;;;;;4982644;28;20117;-66
2022/10/17 07:12:55;;;;;;;10.43;6.60;;;15.80;86.10;;;;;;5011455;28;20121;-67
2022/10/17 07:15:21;;;;;;;10.80;7.05;;;15.80;86.00;;;;;;4996758;28;20077;-66
2022/10/17 07:17:50;;;;;;;9.35;6.70;;;15.80;86.00;;;;;;4999110;28;20061;-67
2022/10/17 07:20:17;;;;;;;11.30;6.65;;;15.90;86.10;;;;;;5005954;28;20026;-66
2022/10/17 07:22:44;;;;;;;11.13;7.10;;;15.90;86.00;;;;;;4997925;28;20028;-66
2022/10/17 07:25:10;;;;;;;10.75;7.13;;;15.90;86.00;;;;;;4997409;28;20025;-66
2022/10/17 07:27:42;;;;;;;11.50;7.30;;;16.00;86.00;;;;;;5014015;28;20027;-66
2022/10/17 07:30:09;;;;;;;9.85;7.10;;;16.00;86.00;;;;;;5004391;28;20454;-66
2022/10/17 07:32:37;;;;;;;12.10;8.43;;;16.00;86.00;;;;;;5008092;28;20172;-67
2022/10/17 07:35:04;;;;;;;13.00;8.30;;;16.10;86.00;;;;;;5000752;28;20112;-65
2022/10/17 07:37:30;;;;;;;12.85;8.27;;;16.20;86.00;;;;;;5008558;28;20034;-66
2022/10/17 07:39:57;;;;;;;13.50;9.05;;;16.20;86.00;;;;;;5016652;28;20028;-66
2022/10/17 07:42:23;;;;;;;12.25;8.27;;;16.30;86.00;;;;;;5013436;28;20443;-66
2022/10/17 07:44:50;;;;;;;13.95;9.43;;;16.40;85.90;;;;;;5018267;28;20485;-66
2022/10/17 07:47:15;;;;;;;14.50;8.98;;;16.40;85.90;;;;;;5027956;28;20021;-66
2022/10/17 07:49:43;;;;;;;15.32;9.57;;;16.50;85.90;;;;;;5014982;28;20080;-66
2022/10/17 07:52:13;;;;;;;12.75;9.07;;;16.50;86.00;;;;;;5017697;28;20461;-66
2022/10/17 07:54:39;;;;;;;16.00;9.57;;;16.50;86.00;;;;;;5019894;28;20045;-67
2022/10/17 07:57:05;;;;;;;14.25;9.50;;;16.60;86.10;;;;;;5019731;28;20293;-67
2022/10/17 07:59:32;;;;;;;17.08;9.85;;;16.60;86.10;;;;;;5020036;28;20095;-67
2022/10/17 08:01:58;;;;;;;14.70;10.25;;;16.60;86.20;;;;;;5034232;28;20033;-67
2022/10/17 08:04:25;;;;;;;15.13;10.18;;;16.60;86.20;;;;;;5023923;28;20026;-67
2022/10/17 08:06:51;;;;;;;13.05;9.73;;;16.60;86.30;;;;;;5027728;28;20117;-67
2022/10/17 08:09:16;;;;;;;13.02;8.32;;;16.60;86.50;;;;;;5016263;28;20061;-68
2022/10/17 08:11:42;;;;;;;14.90;9.23;;;16.60;86.60;;;;;;5033297;28;20072;-68
2022/10/17 08:14:09;;;;;;;11.45;6.80;;;16.60;86.70;;;;;;5032947;28;20040;-67
2022/10/17 08:16:35;;;;;;;14.63;9.02;;;16.70;86.80;;;;;;5022438;28;20033;-67
2022/10/17 08:19:02;;;;;;;12.02;8.02;;;16.70;86.90;;;;;;5027591;28;20097;-67
2022/10/17 08:21:27;;;;;;;12.60;8.07;;;16.70;87.00;;;;;;5025480;28;20045;-67
2022/10/17 08:23:53;;;;;;;12.40;7.68;;;16.70;87.10;;;;;;5038859;28;20029;-67
2022/10/17 08:26:19;;;;;;;12.57;7.70;;;16.70;87.20;;;;;;5037230;28;20064;-67
2022/10/17 08:28:45;;;;;;;13.15;8.60;;;16.70;87.30;;;;;;5026767;28;20036;-67
2022/10/17 08:31:13;;;;;;;13.63;7.30;;;16.70;87.30;;;;;;5036952;28;20034;-67
2022/10/17 08:33:40;;;;;;;12.43;8.15;;;16.70;87.40;;;;;;5038341;28;20092;-68
2022/10/17 08:36:07;;;;;;;11.88;7.20;;;16.70;87.50;;;;;;5032813;28;20473;-67
2022/10/17 08:38:34;;;;;;;11.38;7.38;;;16.70;87.50;;;;;;5025288;28;20033;-67
2022/10/17 08:41:31;;;;;;;10.90;7.55;;;16.80;87.60;;;;;;5034979;28;20032;-67
2022/10/17 08:44:07;;;;;;;12.88;7.28;;;16.80;87.60;;;;;;4989390;28;20041;-67
2022/10/17 08:46:36;;;;;;;13.75;8.02;;;16.80;87.70;;;;;;5005247;28;20030;-67
2022/10/17 08:49:05;;;;;;;12.50;6.55;;;16.80;87.70;;;;;;4995408;28;20037;-67
2022/10/17 08:51:35;;;;;;;10.48;7.00;;;16.80;87.80;;;;;;4982584;28;20371;-67
2022/10/17 08:54:28;;;;;;;10.05;7.35;;;16.80;87.90;;;;;;5003778;28;20942;-67
2022/10/17 08:56:55;;;;;;;10.55;6.70;;;16.90;88.00;;;;;;5014532;28;20057;-67
2022/10/17 08:59:29;;;;;;;19.33;6.97;;;16.80;88.10;;;;;;5005893;28;20038;-67
2022/10/17 09:02:02;;;;;;;12.10;7.07;;;16.90;88.20;;;;;;5016056;28;20041;-67
2022/10/17 09:05:00;;;;;;;13.48;7.15;;;16.90;88.30;;;;;;5016506;28;20034;-67
2022/10/17 09:07:55;;;;;;;12.73;6.53;;;16.90;88.30;;;;;;4997508;28;20046;-67
2022/10/17 09:10:56;;;;;;;10.70;6.45;;;16.90;89.10;;;;;;5016516;28;20053;-67
2022/10/17 09:13:43;;;;;;;10.30;6.37;;;16.90;88.40;;;;;;4957930;29;20078;-68
2022/10/17 09:16:19;;;;;;;11.40;6.38;;;16.80;88.40;;;;;;4948485;29;20051;-67
2022/10/17 09:19:11;;;;;;;13.13;7.07;;;16.90;88.60;;;;;;4972290;28;20071;-67
2022/10/17 09:21:45;;;;;;;10.05;6.03;;;16.90;88.70;;;;;;4935758;29;20131;-67
2022/10/17 09:24:19;;;;;;;10.27;6.00;;;16.90;89.00;;;;;;4951767;29;20491;-67
2022/10/17 09:26:45;;;;;;;10.07;6.38;;;16.90;89.70;;;;;;4946912;29;20488;-67
2022/10/17 09:29:29;;;;;;;11.68;6.68;;;16.90;89.00;;;;;;4956155;28;20098;-67
2022/10/17 09:32:10;;;;;;;11.82;6.80;;;17.00;89.20;;;;;;4957242;29;20086;-67
2022/10/17 09:34:36;;;;;;;11.00;7.03;;;17.00;89.30;;;;;;4950200;29;20068;-67
2022/10/17 09:37:02;;;;;;;9.65;6.82;;;17.00;89.30;;;;;;4945264;29;20066;-66
2022/10/17 09:39:31;;;;;;;9.55;6.57;;;17.00;89.40;;;;;;4951367;29;20028;-66
2022/10/17 09:41:59;;;;;;;9.63;6.20;;;17.00;89.50;;;;;;4939967;29;20040;-66
2022/10/17 09:44:36;;;;;;;11.55;6.55;;;17.00;89.60;;;;;;4950583;29;20154;-66
2022/10/17 09:47:09;;;;;;;10.25;6.80;;;17.00;89.70;;;;;;4974862;28;20037;-67
2022/10/17 09:49:37;;;;;;;10.23;6.40;;;17.00;89.70;;;;;;5023149;28;20030;-67
2022/10/17 09:52:09;;;;;;;10.70;6.53;;;17.00;89.70;;;;;;5019246;28;20030;-66
2022/10/17 09:54:48;;;;;;;10.25;5.93;;;17.00;89.80;;;;;;5026198;28;20502;-66
2022/10/17 09:57:16;;;;;;;10.48;5.47;;;17.00;89.80;;;;;;5016265;28;20030;-67
2022/10/17 10:00:00;;;;;;;10.00;5.53;;;17.00;89.90;;;;;;5029397;28;20029;-67
2022/10/17 10:02:28;;;;;;;9.80;5.97;;;17.00;90.00;;;;;;5036034;28;20528;-67
2022/10/17 10:05:03;;;;;;;9.65;6.55;;;17.10;90.00;;;;;;5035471;28;20088;-67
2022/10/17 10:07:32;;;;;;;11.57;5.88;;;17.10;90.00;;;;;;5018273;28;20033;-67
2022/10/17 10:09:59;;;;;;;11.32;6.10;;;17.10;90.00;;;;;;5032384;28;20104;-67
2022/10/17 10:12:31;;;;;;;10.60;6.57;;;17.10;90.00;;;;;;5030816;28;20037;-67
2022/10/17 10:14:57;;;;;;;10.98;6.65;;;17.10;90.10;;;;;;5023855;28;20054;-67
2022/10/17 10:17:37;;;;;;;10.00;6.70;;;17.10;90.10;;;;;;5015388;28;20030;-66
2022/10/17 10:20:28;;;;;;;11.83;6.57;;;17.20;90.10;;;;;;5011454;28;20049;-66
2022/10/17 10:23:13;;;;;;;9.40;5.80;;;17.20;90.10;;;;;;5013381;28;20391;-66
2022/10/17 10:25:50;;;;;;;9.70;5.50;;;17.20;90.10;;;;;;5014896;28;20033;-67
2022/10/17 10:28:16;;;;;;;8.80;5.93;;;17.20;90.10;;;;;;5012292;28;20038;-67
2022/10/17 10:30:47;;;;;;;10.88;6.32;;;17.20;90.20;;;;;;5012888;28;21514;-67
2022/10/17 10:33:13;;;;;;;9.67;5.67;;;17.20;90.20;;;;;;5013221;28;20462;-67
2022/10/17 10:35:38;;;;;;;10.88;6.07;;;17.20;90.20;;;;;;5012625;28;20036;-67
2022/10/17 10:38:12;;;;;;;10.48;6.28;;;17.20;90.20;;;;;;5014806;28;20153;-67
2022/10/17 10:40:49;;;;;;;11.18;5.22;;;17.20;90.30;;;;;;5014846;28;20028;-67
2022/10/17 10:43:28;;;;;;;10.85;6.22;;;17.30;90.30;;;;;;5011262;28;20109;-67
2022/10/17 10:45:54;;;;;;;11.20;6.07;;;17.30;90.30;;;;;;5011819;28;20026;-67
2022/10/17 10:48:30;;;;;;;10.18;6.35;;;17.30;90.20;;;;;;5015306;28;20040;-67
2022/10/17 10:51:19;;;;;;;9.48;5.38;;;17.30;90.30;;;;;;5014011;28;20370;-67
2022/10/17 10:53:52;;;;;;;9.93;5.45;;;17.40;90.20;;;;;;5011908;28;20022;-67
2022/10/17 10:56:23;;;;;;;13.52;6.75;;;17.40;90.20;;;;;;5017166;28;20044;-65
2022/10/17 10:58:51;;;;;;;9.05;6.00;;;17.50;90.30;;;;;;5011369;28;20473;-65
2022/10/17 11:01:23;;;;;;;9.10;5.55;;;17.50;90.20;;;;;;5024123;28;20049;-65
2022/10/17 11:03:59;;;;;;;10.02;5.70;;;17.50;90.20;;;;;;5013337;28;20403;-65
2022/10/17 11:06:27;;;;;;;9.75;5.65;;;17.60;90.20;;;;;;5013249;28;20056;-65
2022/10/17 11:09:32;;;;;;;10.73;5.55;;;17.60;90.20;;;;;;5014613;28;20358;-67
2022/10/17 11:12:04;;;;;;;8.70;5.40;;;17.60;90.20;;;;;;5012550;28;20508;-67
2022/10/17 11:14:48;;;;;;;;;;;17.60;90.20;;;;;;5013106;28;20049;-67
2022/10/17 11:17:33;;;;;;;9.27;5.50;;;17.60;90.10;;;;;;5014304;28;19920;-67
2022/10/17 11:20:08;;;;;;;8.93;5.35;;;17.50;90.10;;;;;;4988806;28;20041;-67
2022/10/17 11:22:47;;;;;;;9.80;5.85;;;17.50;90.20;;;;;;5012124;28;20026;-67
2022/10/17 11:25:24;;;;;;;9.55;5.70;;;17.60;90.20;;;;;;5015995;28;20029;-67
2022/10/17 11:27:50;;;;;;;8.60;5.50;;;17.60;90.20;;;;;;5019257;28;20064;-67
2022/10/17 11:30:16;;;;;;;10.00;6.05;;;17.60;90.20;;;;;;5003558;28;20057;-67
2022/10/17 11:32:56;;;;;;;10.55;6.07;;;17.60;90.20;;;;;;5018760;28;20034;-67
2022/10/17 11:35:35;;;;;;;10.25;6.40;;;17.60;90.30;;;;;;5017345;28;20034;-67
2022/10/17 11:38:23;;;;;;;10.40;6.57;;;17.60;90.30;;;;;;5020443;28;20040;-67
2022/10/17 11:40:52;;;;;;;12.55;6.97;;;17.60;90.30;;;;;;5018488;28;20041;-67
2022/10/17 11:43:29;;;;;;;11.02;5.85;;;17.60;90.30;;;;;;5014552;28;20033;-67
2022/10/17 11:46:01;;;;;;;12.57;6.30;;;17.60;90.30;;;;;;5013219;28;20126;-67
2022/10/17 11:48:34;;;;;;;10.90;6.50;;;17.70;90.30;;;;;;5015484;28;20037;-67
2022/10/17 11:51:11;;;;;;;13.68;7.35;;;17.70;90.30;;;;;;5016483;28;20036;-67
2022/10/17 11:54:00;;;;;;;9.45;6.55;;;17.80;90.30;;;;;;5014171;28;20041;-67
2022/10/17 11:56:35;;;;;;;10.23;7.10;;;17.80;90.30;;;;;;5013745;28;20453;-67
2022/10/17 11:59:24;;;;;;;11.85;6.75;;;17.80;90.30;;;;;;5013907;28;20060;-67
2022/10/17 12:02:10;;;;;;;13.18;7.10;;;17.80;90.30;;;;;;4998136;28;20102;-67
2022/10/17 12:05:00;;;;;;;11.27;7.40;;;17.90;90.30;;;;;;5011803;28;20038;-67
2022/10/17 12:07:56;;;;;;;11.63;7.00;;;17.90;90.20;;;;;;5016148;28;20451;-67
2022/10/17 12:10:54;;;;;;;10.23;6.78;;;17.80;90.20;;;;;;5023851;28;20121;-67
2022/10/17 12:13:31;;;;;;;12.35;7.68;;;17.90;90.30;;;;;;5016596;28;20096;-67
2022/10/17 12:16:17;;;;;;;11.02;7.50;;;17.80;90.30;;;;;;5015089;28;20046;-67
2022/10/17 12:18:43;;;;;;;11.30;7.90;;;17.80;90.30;;;;;;5034084;28;20454;-68
2022/10/17 12:21:08;;;;;;;11.25;7.43;;;17.80;90.30;;;;;;5028533;28;20026;-68
2022/10/17 12:23:37;;;;;;;10.82;7.45;;;17.90;90.30;;;;;;5021967;28;20040;-68
2022/10/17 12:26:05;;;;;;;11.93;7.72;;;17.80;90.30;;;;;;5023699;28;20422;-68
2022/10/17 12:28:37;;;;;;;12.05;7.75;;;17.80;90.30;;;;;;5023667;28;20037;-68
2022/10/17 12:31:14;;;;;;;12.23;8.25;;;17.80;90.30;;;;;;5020138;28;20148;-67
2022/10/17 12:33:54;;;;;;;14.35;8.57;;;17.80;90.30;;;;;;5018996;28;20030;-68
2022/10/17 12:36:26;;;;;;;10.93;7.88;;;17.90;90.40;;;;;;5032502;28;20455;-67
2022/10/17 12:39:01;;;;;;;12.15;7.93;;;17.90;90.40;;;;;;5022889;28;20054;-67
2022/10/17 12:41:39;;;;;;;14.43;8.23;;;17.90;90.40;;;;;;5012284;28;20355;-68
2022/10/17 12:44:13;;;;;;;11.57;7.85;;;17.90;90.40;;;;;;5018931;28;20022;-68
2022/10/17 12:47:06;;;;;;;11.57;8.10;;;17.90;90.70;;;;;;5016148;28;20425;-67
2022/10/17 12:49:47;;;;;;;12.02;7.82;;;17.90;90.40;;;;;;5019149;28;20354;-67
2022/10/17 12:52:33;;;;;;;11.13;7.53;;;17.90;90.40;;;;;;5019410;28;20033;-67
2022/10/17 12:55:02;;;;;;;13.40;8.15;;;17.90;90.40;;;;;;5018494;28;20280;-67
2022/10/17 12:57:52;;;;;;;10.93;7.53;;;17.90;90.40;;;;;;5019714;28;20434;-66
2022/10/17 13:00:20;;;;;;;10.90;7.93;;;17.90;90.40;;;;;;5014623;28;20065;-67
2022/10/17 13:02:48;;;;;;;11.63;8.00;;;17.90;90.40;;;;;;5026593;28;20034;-67
2022/10/17 13:05:19;;;;;;;13.25;8.18;;;17.90;90.40;;;;;;5010236;28;20053;-67